Time;durP1;ratioP1;P1;durP2;ratioP2;P2;SDS_P1;SDS_P2;PMS_P1;PMS_P2;Temp;Humidity;BMP_temperature;BMP_pressure;BME280_temperature;BME280_humidity;BME280_pressure;Samples;Min_cycle;Max_cycle;Signal;HPM_P1;HPM_P2
2022/05/14 00:00:12;;;;;;;;;6.25;5.00;;;;;13.81;55.46;100308.84;5055401;28;8846;-64
2022/05/14 00:02:39;;;;;;;;;7.50;6.00;;;;;13.77;55.71;100312.75;5055470;28;8850;-64
2022/05/14 00:05:07;;;;;;;;;4.00;4.00;;;;;13.74;55.43;100313.03;5056844;28;9015;-62
2022/05/14 00:07:36;;;;;;;;;7.00;7.00;;;;;13.69;56.24;100309.91;5059160;28;8826;-63
2022/05/14 00:10:04;;;;;;;;;5.50;5.50;;;;;13.62;56.10;100309.59;5059727;28;8861;-63
2022/05/14 00:15:17;;;;;;;;;6.00;6.00;;;;;13.50;56.29;100309.78;5053934;28;8954;-63
2022/05/14 00:17:47;;;;;;;;;7.00;6.25;;;;;13.44;56.65;100311.16;5038822;28;8950;-63
2022/05/14 00:20:14;;;;;;;;;7.00;7.00;;;;;13.33;56.61;100308.56;5039129;28;8862;-63
2022/05/14 00:22:42;;;;;;;;;9.25;7.00;;;;;13.19;57.30;100318.72;5037092;28;8936;-63
2022/05/14 00:25:10;;;;;;;;;7.00;7.00;;;;;13.05;57.21;100311.88;5036903;28;8863;-64
2022/05/14 00:27:39;;;;;;;;;9.75;9.00;;;;;12.94;57.59;100311.03;5041038;28;8835;-62
2022/05/14 00:30:07;;;;;;;;;1.75;0.75;;;;;12.84;58.26;100310.94;5057033;28;8864;-63
2022/05/14 00:32:37;;;;;;;;;8.50;7.50;;;;;12.75;58.23;100314.38;5058308;28;8838;-63
2022/05/14 00:35:05;;;;;;;;;8.00;7.00;;;;;12.67;58.13;100313.31;5058529;28;8846;-63
2022/05/14 00:37:33;;;;;;;;;8.00;6.75;;;;;12.61;58.50;100305.81;5058788;28;8854;-63
2022/05/14 00:40:03;;;;;;;;;7.50;7.00;;;;;12.55;58.66;100314.34;5058528;28;8927;-62
2022/05/14 00:42:31;;;;;;;;;6.25;6.00;;;;;12.51;58.64;100312.88;5058700;28;8905;-63
2022/05/14 00:44:58;;;;;;;;;9.00;8.75;;;;;12.44;58.71;100311.66;5058458;28;8861;-63
2022/05/14 00:47:26;;;;;;;;;6.00;6.00;;;;;12.38;58.76;100312.19;5058588;28;8830;-62
2022/05/14 00:49:54;;;;;;;;;8.50;8.50;;;;;12.34;58.71;100314.25;5058711;28;8854;-63
2022/05/14 00:52:22;;;;;;;;;9.00;9.00;;;;;12.31;59.27;100314.50;5058329;28;8857;-63
2022/05/14 00:54:49;;;;;;;;;7.00;6.25;;;;;12.28;58.84;100311.22;5058690;28;8866;-63
2022/05/14 00:57:17;;;;;;;;;6.00;5.00;;;;;12.24;59.34;100312.44;5057667;28;8854;-62
2022/05/14 00:59:46;;;;;;;;;7.00;7.00;;;;;12.20;59.19;100313.66;5037913;28;8844;-67
2022/05/14 01:02:14;;;;;;;;;7.00;7.00;;;;;12.15;59.38;100313.19;5038292;28;8829;-63
2022/05/14 01:04:41;;;;;;;;;4.00;4.00;;;;;12.09;59.29;100311.00;5038263;28;8852;-63
2022/05/14 01:07:09;;;;;;;;;7.25;7.25;;;;;12.01;59.62;100313.44;5038672;28;8946;-63
2022/05/14 01:09:38;;;;;;;;;3.75;3.25;;;;;11.92;59.88;100302.63;5037879;28;8840;-63
2022/05/14 01:12:05;;;;;;;;;7.00;7.00;;;;;11.84;60.12;100311.25;5037585;28;8828;-62
2022/05/14 01:14:33;;;;;;;;;8.50;6.75;;;;;11.79;59.95;100304.56;5037318;28;8867;-63
2022/05/14 01:17:01;;;;;;;;;7.00;6.75;;;;;11.73;60.53;100308.56;5036403;28;8960;-63
2022/05/14 01:19:29;;;;;;;;;6.75;6.50;;;;;11.69;60.45;100303.59;5037719;28;9549;-63
2022/05/14 01:21:57;;;;;;;;;6.50;6.50;;;;;11.63;60.74;100302.28;5037243;28;8860;-62
2022/05/14 01:27:09;;;;;;;;;6.00;6.00;;;;;11.55;60.75;100298.47;5037936;28;8874;-63
2022/05/14 01:29:38;;;;;;;;;9.00;8.00;;;;;11.52;60.38;100296.03;5054783;28;8822;-62
2022/05/14 01:32:06;;;;;;;;;8.00;6.00;;;;;11.49;60.56;100298.94;5057772;28;8846;-63
2022/05/14 01:34:34;;;;;;;;;7.00;7.00;;;;;11.46;61.01;100294.69;5057532;28;8826;-63
2022/05/14 01:37:01;;;;;;;;;3.75;3.75;;;;;11.44;61.03;100301.97;5057716;28;8868;-63
2022/05/14 01:39:29;;;;;;;;;4.50;4.50;;;;;11.44;61.24;100306.47;5057179;28;8953;-63
2022/05/14 01:41:57;;;;;;;;;5.00;5.00;;;;;11.43;61.57;100300.25;5057982;28;8868;-65
2022/05/14 01:44:25;;;;;;;;;9.00;7.00;;;;;11.44;60.89;100304.63;5057409;28;8818;-62
2022/05/14 01:46:52;;;;;;;;;3.25;3.25;;;;;11.45;60.97;100301.00;5057233;28;8834;-63
2022/05/14 01:49:20;;;;;;;;;8.50;6.25;;;;;11.43;60.99;100302.94;5057644;28;8838;-63
2022/05/14 01:51:48;;;;;;;;;7.50;6.50;;;;;11.40;61.06;100308.50;5057293;28;8874;-63
2022/05/14 01:54:16;;;;;;;;;7.50;7.50;;;;;11.41;60.93;100307.53;5057259;28;8861;-63
2022/05/14 01:56:43;;;;;;;;;7.00;6.50;;;;;11.41;61.18;100309.34;5056875;28;8840;-63
2022/05/14 01:59:11;;;;;;;;;6.00;6.00;;;;;11.44;60.86;100309.97;5041252;28;8934;-62
2022/05/14 02:01:39;;;;;;;;;7.00;7.00;;;;;11.50;60.90;100304.16;5037414;28;8852;-63
2022/05/14 02:04:07;;;;;;;;;6.25;6.00;;;;;11.54;60.52;100310.94;5037000;28;8986;-63
2022/05/14 02:06:34;;;;;;;;;8.50;8.00;;;;;11.55;60.69;100309.13;5037294;28;8856;-63
2022/05/14 02:09:02;;;;;;;;;3.00;3.00;;;;;11.54;61.01;100300.25;5037259;28;8828;-63
2022/05/14 02:11:30;;;;;;;;;7.00;6.75;;;;;11.50;60.63;100304.16;5037230;28;8866;-66
2022/05/14 02:13:58;;;;;;;;;9.75;8.50;;;;;11.48;60.64;100308.78;5037333;28;8837;-63
2022/05/14 02:16:25;;;;;;;;;6.75;6.75;;;;;11.47;60.56;100307.06;5037095;28;8836;-63
2022/05/14 02:18:53;;;;;;;;;7.50;6.25;;;;;11.44;60.69;100307.28;5036469;28;9551;-63
2022/05/14 02:21:24;;;;;;;;;6.75;6.75;;;;;11.41;60.73;100304.00;5036675;28;8983;-66
2022/05/14 02:23:52;;;;;;;;;7.00;7.00;;;;;11.37;60.73;100305.22;5036436;28;8875;-63
2022/05/14 02:26:20;;;;;;;;;7.50;7.50;;;;;11.35;60.96;100302.69;5036593;28;8837;-63
2022/05/14 02:28:48;;;;;;;;;4.75;3.75;;;;;11.34;61.22;100305.44;5049531;28;8814;-63
2022/05/14 02:31:17;;;;;;;;;11.75;11.00;;;;;11.33;61.40;100301.09;5056479;28;8833;-63
2022/05/14 02:33:45;;;;;;;;;6.75;6.75;;;;;11.30;61.27;100301.34;5056966;28;8850;-63
2022/05/14 02:36:12;;;;;;;;;9.00;7.00;;;;;11.26;61.17;100303.38;5056713;28;9725;-63
2022/05/14 02:38:40;;;;;;;;;7.50;7.00;;;;;11.22;60.84;100304.56;5056316;28;8849;-63
2022/05/14 02:41:08;;;;;;;;;6.50;6.00;;;;;11.20;61.55;100297.66;5056744;28;8822;-63
2022/05/14 02:43:36;;;;;;;;;7.00;5.00;;;;;11.20;61.39;100303.84;5056203;28;8850;-63
2022/05/14 02:46:04;;;;;;;;;6.00;6.00;;;;;11.20;61.34;100298.53;5056444;28;8928;-63
2022/05/14 02:48:32;;;;;;;;;7.00;7.00;;;;;11.19;61.02;100298.63;5055647;28;8842;-63
2022/05/14 02:51:00;;;;;;;;;7.50;7.50;;;;;11.19;61.30;100299.50;5055979;28;8881;-64
2022/05/14 02:53:28;;;;;;;;;4.50;4.00;;;;;11.16;61.43;100306.88;5055948;28;8953;-64
2022/05/14 02:55:55;;;;;;;;;9.75;7.00;;;;;11.14;61.19;100304.31;5055601;28;8834;-63
2022/05/14 03:01:05;;;;;;;;;6.00;6.00;;;;;11.09;61.15;100310.97;5034980;28;8856;-63
2022/05/14 03:03:33;;;;;;;;;7.50;7.00;;;;;11.06;61.30;100314.72;5035895;28;8867;-63
2022/05/14 03:06:01;;;;;;;;;6.25;6.25;;;;;11.06;61.54;100312.03;5036073;28;8840;-63
2022/05/14 03:08:29;;;;;;;;;6.00;5.50;;;;;11.03;61.13;100312.28;5036358;28;8856;-63
2022/05/14 03:10:56;;;;;;;;;5.50;4.00;;;;;11.00;61.61;100311.66;5035645;28;8915;-63
2022/05/14 03:13:24;;;;;;;;;5.75;5.75;;;;;10.94;61.72;100307.63;5035520;28;8840;-63
2022/05/14 03:15:52;;;;;;;;;8.75;6.75;;;;;10.91;61.67;100312.38;5035881;28;8845;-63
2022/05/14 03:18:20;;;;;;;;;10.00;10.00;;;;;10.84;62.08;100306.63;5035815;28;8942;-63
2022/05/14 03:20:47;;;;;;;;;6.75;6.00;;;;;10.78;62.33;100307.06;5035656;28;9000;-63
2022/05/14 03:23:15;;;;;;;;;7.00;7.00;;;;;10.73;61.54;100303.94;5035585;28;8852;-63
2022/05/14 03:25:43;;;;;;;;;3.00;3.00;;;;;10.69;62.24;100312.25;5036011;28;8906;-63
2022/05/14 03:28:11;;;;;;;;;9.75;7.50;;;;;10.65;62.03;100303.66;5045744;28;8818;-63
2022/05/14 03:30:39;;;;;;;;;9.50;9.00;;;;;10.63;62.38;100302.06;5054932;28;8978;-63
2022/05/14 03:33:06;;;;;;;;;6.00;6.00;;;;;10.60;62.39;100303.13;5054585;28;8834;-63
2022/05/14 03:35:34;;;;;;;;;6.50;5.50;;;;;10.56;62.18;100304.31;5055462;28;8850;-63
2022/05/14 03:38:02;;;;;;;;;8.50;7.00;;;;;10.55;62.45;100305.28;5055735;28;8858;-63
2022/05/14 03:40:29;;;;;;;;;8.00;7.00;;;;;10.58;62.15;100302.41;5054748;28;8865;-64
2022/05/14 03:42:57;;;;;;;;;6.50;6.50;;;;;10.61;62.12;100312.81;5055706;28;8849;-63
2022/05/14 03:45:25;;;;;;;;;8.50;7.50;;;;;10.64;61.98;100306.41;5055899;28;8822;-63
2022/05/14 03:47:53;;;;;;;;;8.75;8.50;;;;;10.68;62.01;100306.06;5055378;28;8924;-63
2022/05/14 03:50:21;;;;;;;;;9.00;8.00;;;;;10.71;62.00;100305.84;5054934;28;8923;-63
2022/05/14 03:52:49;;;;;;;;;7.00;6.50;;;;;10.74;62.10;100305.63;5055275;28;8830;-63
2022/05/14 03:55:17;;;;;;;;;9.75;8.50;;;;;10.77;61.88;100309.88;5055465;28;8842;-64
2022/05/14 03:57:45;;;;;;;;;6.25;6.00;;;;;10.80;61.91;100313.16;5048519;28;8821;-63
2022/05/14 04:00:13;;;;;;;;;6.75;6.75;;;;;10.85;61.92;100318.97;5035011;28;8844;-67
2022/05/14 04:02:41;;;;;;;;;10.25;9.50;;;;;10.89;62.24;100314.28;5035670;28;8824;-63
2022/05/14 04:05:08;;;;;;;;;8.50;6.00;;;;;10.92;62.03;100319.38;5035469;28;8829;-63
2022/05/14 04:07:36;;;;;;;;;6.50;6.50;;;;;10.95;61.63;100321.81;5034992;28;8835;-64
2022/05/14 04:10:04;;;;;;;;;6.25;6.25;;;;;10.97;61.99;100318.06;5035283;28;8899;-63
2022/05/14 04:12:32;;;;;;;;;7.00;7.00;;;;;10.98;61.47;100319.75;5034841;28;9600;-63
2022/05/14 04:15:00;;;;;;;;;9.25;9.00;;;;;11.00;61.54;100315.16;5035277;28;9000;-63
2022/05/14 04:17:28;;;;;;;;;6.50;5.00;;;;;11.03;61.67;100316.75;5035075;28;9494;-63
2022/05/14 04:19:56;;;;;;;;;6.25;6.25;;;;;11.06;61.37;100322.69;5034338;28;9536;-63
2022/05/14 04:22:24;;;;;;;;;9.25;8.00;;;;;11.10;61.57;100326.00;5033993;28;8880;-63
2022/05/14 04:24:51;;;;;;;;;4.50;4.50;;;;;11.13;61.23;100328.41;5034000;28;8854;-63
2022/05/14 04:27:19;;;;;;;;;8.50;7.00;;;;;11.17;61.50;100329.88;5039279;28;8811;-64
2022/05/14 04:29:47;;;;;;;;;9.00;7.50;;;;;11.21;61.19;100326.88;5054550;28;8841;-64
2022/05/14 04:32:15;;;;;;;;;8.00;7.50;;;;;11.24;61.13;100328.47;5055507;28;8964;-64
2022/05/14 04:34:43;;;;;;;;;10.25;8.75;;;;;11.27;61.39;100337.06;5054899;28;8838;-63
2022/05/14 04:37:10;;;;;;;;;7.00;6.75;;;;;11.29;61.01;100329.81;5055003;28;8880;-64
2022/05/14 04:39:39;;;;;;;;;9.50;9.00;;;;;11.32;61.08;100334.91;5054473;28;8853;-63
2022/05/14 04:42:07;;;;;;;;;4.00;4.00;;;;;11.36;60.92;100347.03;5054125;28;8870;-63
2022/05/14 04:44:35;;;;;;;;;6.75;6.75;;;;;11.39;61.03;100343.28;5054293;28;8958;-63
2022/05/14 04:47:02;;;;;;;;;8.25;6.75;;;;;11.42;61.18;100338.56;5054543;28;8854;-63
2022/05/14 04:49:30;;;;;;;;;7.50;6.75;;;;;11.48;61.11;100348.78;5054704;28;8822;-64
2022/05/14 04:51:58;;;;;;;;;6.00;5.50;;;;;11.54;60.82;100350.09;5057446;28;8846;-64
2022/05/14 04:54:25;;;;;;;;;9.00;6.50;;;;;11.64;60.54;100343.97;5057842;28;8838;-64
2022/05/14 04:56:53;;;;;;;;;6.25;6.00;;;;;11.75;60.39;100346.66;5056529;28;8858;-69
2022/05/14 04:59:21;;;;;;;;;5.50;4.50;;;;;11.85;60.43;100353.00;5038356;28;8891;-64
2022/05/14 05:04:30;;;;;;;;;7.50;6.00;;;;;11.98;59.80;100351.03;5037417;28;8868;-63
2022/05/14 05:06:58;;;;;;;;;5.50;5.50;;;;;12.02;59.66;100352.50;5038141;28;8963;-63
2022/05/14 05:09:26;;;;;;;;;6.25;6.00;;;;;12.04;60.00;100348.75;5038229;28;8846;-63
2022/05/14 05:11:54;;;;;;;;;6.00;4.00;;;;;12.08;60.13;100362.72;5037836;28;8836;-64
2022/05/14 05:14:22;;;;;;;;;4.25;3.50;;;;;12.15;59.61;100353.25;5037718;28;8866;-64
2022/05/14 05:16:50;;;;;;;;;6.25;5.50;;;;;12.24;59.47;100353.34;5037966;28;8870;-64
2022/05/14 05:19:18;;;;;;;;;6.00;6.00;;;;;12.33;59.47;100357.97;5038595;28;8824;-64
2022/05/14 05:21:46;;;;;;;;;6.00;6.00;;;;;12.45;59.32;100366.81;5038013;28;8860;-64
2022/05/14 05:24:13;;;;;;;;;5.50;5.50;;;;;12.58;59.33;100362.16;5037456;28;8841;-64
2022/05/14 05:26:41;;;;;;;;;5.00;5.00;;;;;12.73;58.60;100364.44;5037722;28;8861;-63
2022/05/14 05:29:09;;;;;;;;;4.50;3.25;;;;;12.86;58.54;100359.81;5037853;28;8840;-64
2022/05/14 05:31:39;;;;;;;;;4.00;3.00;;;;;12.99;58.13;100367.69;5037724;28;8840;-63
2022/05/14 05:34:07;;;;;;;;;4.75;3.75;;;;;13.14;58.39;100369.09;5037468;28;8914;-64
2022/05/14 05:36:34;;;;;;;;;3.75;3.00;;;;;13.32;57.50;100371.06;5037989;28;8856;-64
2022/05/14 05:39:03;;;;;;;;;6.00;6.00;;;;;13.46;57.64;100367.22;5037223;28;8887;-64
2022/05/14 05:41:31;;;;;;;;;6.50;4.00;;;;;13.56;57.53;100369.00;5036651;28;8864;-65
2022/05/14 05:43:59;;;;;;;;;4.00;4.00;;;;;13.63;57.63;100358.59;5035986;28;8858;-64
2022/05/14 05:46:26;;;;;;;;;5.00;4.50;;;;;13.65;57.27;100364.66;5036115;28;9749;-64
2022/05/14 05:48:55;;;;;;;;;7.25;6.25;;;;;13.67;57.54;100363.56;5035404;28;8843;-63
2022/05/14 05:51:23;;;;;;;;;4.50;3.50;;;;;13.73;57.61;100370.25;5035224;28;8856;-64
2022/05/14 05:56:51;;;;;;;;;3.25;2.75;;;;;13.94;57.10;100377.25;5035241;28;8862;-64
2022/05/14 05:59:19;;;;;;;;;3.50;2.50;;;;;14.06;56.56;100378.03;5053754;28;8838;-65
2022/05/14 06:01:47;;;;;;;;;3.00;3.00;;;;;14.10;56.75;100374.94;5053594;28;8903;-64
2022/05/14 06:04:15;;;;;;;;;3.00;3.00;;;;;14.17;56.85;100375.25;5054372;28;8864;-64
2022/05/14 06:06:42;;;;;;;;;6.75;5.00;;;;;14.21;56.79;100382.91;5054526;28;8868;-64
2022/05/14 06:09:12;;;;;;;;;4.00;4.00;;;;;14.23;56.96;100383.66;5053648;28;8841;-64
2022/05/14 06:11:41;;;;;;;;;3.00;2.50;;;;;14.23;56.69;100380.97;5054474;28;8847;-64
2022/05/14 06:14:09;;;;;;;;;5.00;5.00;;;;;14.27;56.25;100392.25;5055663;28;8826;-64
2022/05/14 06:16:37;;;;;;;;;3.25;1.50;;;;;14.29;56.71;100377.75;5056292;28;8827;-64
2022/05/14 06:19:05;;;;;;;;;2.50;2.00;;;;;14.35;56.29;100376.38;5056695;28;8834;-64
2022/05/14 06:21:32;;;;;;;;;3.00;3.00;;;;;14.35;57.13;100371.00;5056250;28;8866;-65
2022/05/14 06:24:00;;;;;;;;;3.00;1.50;;;;;14.34;56.78;100382.72;5056222;28;8862;-63
2022/05/14 06:26:28;;;;;;;;;4.00;4.00;;;;;14.38;56.66;100384.13;5056904;28;8826;-64
2022/05/14 06:28:57;;;;;;;;;6.50;3.75;;;;;14.41;56.67;100379.34;5055852;28;9654;-63
2022/05/14 06:31:25;;;;;;;;;4.00;4.00;;;;;14.48;56.96;100380.50;5056363;28;8943;-63
2022/05/14 06:33:53;;;;;;;;;5.50;5.50;;;;;14.51;57.29;100385.56;5056430;28;8826;-65
2022/05/14 06:36:21;;;;;;;;;3.75;3.00;;;;;14.50;57.25;100383.03;5056360;28;8886;-63
2022/05/14 06:38:48;;;;;;;;;1.00;1.00;;;;;14.52;57.16;100375.72;5056365;28;8849;-63
2022/05/14 06:41:16;;;;;;;;;3.00;3.00;;;;;14.56;57.07;100374.47;5056057;28;8830;-63
2022/05/14 06:43:44;;;;;;;;;7.00;6.50;;;;;14.61;56.62;100386.47;5056318;28;8903;-63
2022/05/14 06:46:12;;;;;;;;;4.00;4.00;;;;;14.75;56.66;100382.53;5056388;28;8976;-63
2022/05/14 06:48:39;;;;;;;;;5.00;5.00;;;;;14.87;56.41;100376.09;5055063;28;8830;-64
2022/05/14 06:51:07;;;;;;;;;4.50;4.50;;;;;15.00;56.37;100384.69;5054800;28;8933;-64
2022/05/14 06:53:35;;;;;;;;;8.50;7.00;;;;;15.09;55.57;100392.75;5055800;28;8877;-63
2022/05/14 06:56:02;;;;;;;;;6.00;5.00;;;;;15.15;56.09;100399.41;5056087;28;9518;-64
2022/05/14 06:58:30;;;;;;;;;6.00;6.00;;;;;15.21;55.59;100396.16;5037190;28;8836;-64
2022/05/14 07:00:59;;;;;;;;;6.00;4.00;;;;;15.27;55.33;100391.09;5036056;28;8844;-63
2022/05/14 07:08:57;;;;;;;;;7.00;6.25;;;;;15.66;55.13;100391.94;5033997;28;8902;-64
2022/05/14 07:11:25;;;;;;;;;6.25;6.00;;;;;15.76;54.55;100384.75;5035416;28;8841;-63
2022/05/14 07:13:53;;;;;;;;;5.50;4.50;;;;;15.83;54.87;100393.91;5034621;28;8974;-63
2022/05/14 07:16:22;;;;;;;;;3.75;3.50;;;;;15.90;54.96;100397.69;5035411;28;8825;-63
2022/05/14 07:18:50;;;;;;;;;6.75;6.75;;;;;15.96;54.72;100398.00;5035764;28;8871;-63
2022/05/14 07:21:18;;;;;;;;;7.75;6.00;;;;;16.01;54.29;100400.25;5035190;28;8882;-64
2022/05/14 07:23:45;;;;;;;;;5.75;3.75;;;;;16.08;54.20;100393.28;5034998;28;8852;-63
2022/05/14 07:26:13;;;;;;;;;5.50;4.50;;;;;16.14;53.93;100392.72;5035163;28;8858;-64
2022/05/14 07:28:41;;;;;;;;;6.00;6.00;;;;;16.18;54.25;100395.78;5046226;28;9535;-63
2022/05/14 07:31:08;;;;;;;;;3.75;3.75;;;;;16.25;54.23;100399.59;5055263;28;8827;-65
2022/05/14 07:33:38;;;;;;;;;1.00;1.00;;;;;16.31;53.82;100396.31;5055266;28;8834;-64
2022/05/14 07:36:05;;;;;;;;;6.50;6.00;;;;;16.39;53.27;100387.53;5054896;28;8846;-64
2022/05/14 07:38:34;;;;;;;;;3.75;3.75;;;;;16.47;53.88;100380.44;5054980;28;8923;-64
2022/05/14 07:41:02;;;;;;;;;5.75;5.50;;;;;16.60;53.63;100378.25;5054249;28;8889;-64
2022/05/14 07:43:30;;;;;;;;;3.00;3.00;;;;;16.68;53.37;100383.72;5054482;28;8864;-63
2022/05/14 07:45:58;;;;;;;;;3.25;3.00;;;;;16.78;53.41;100384.50;5054791;28;8850;-63
2022/05/14 07:48:26;;;;;;;;;5.50;4.00;;;;;16.87;53.65;100377.41;5055201;28;8919;-64
2022/05/14 07:50:54;;;;;;;;;4.00;4.00;;;;;16.96;52.61;100379.16;5054829;28;9016;-64
2022/05/14 07:53:21;;;;;;;;;4.00;3.75;;;;;17.08;52.91;100380.66;5054112;28;8842;-65
2022/05/14 07:55:50;;;;;;;;;3.75;3.75;;;;;17.16;52.50;100376.19;5052814;28;8927;-64
2022/05/14 07:58:18;;;;;;;;;6.75;6.00;;;;;17.25;52.30;100375.25;5036710;28;9470;-64
2022/05/14 08:00:46;;;;;;;;;4.50;3.50;;;;;17.31;52.27;100374.66;5034756;28;8863;-64
2022/05/14 08:03:13;;;;;;;;;4.00;4.00;;;;;17.38;52.61;100374.94;5034242;28;8963;-64
2022/05/14 08:05:41;;;;;;;;;4.50;4.50;;;;;17.48;52.40;100376.50;5033842;28;8852;-64
2022/05/14 08:08:10;;;;;;;;;5.50;3.75;;;;;17.59;51.95;100375.44;5033611;28;8828;-63
2022/05/14 08:10:38;;;;;;;;;5.00;5.00;;;;;17.70;51.60;100378.72;5034246;28;8948;-63
2022/05/14 08:13:06;;;;;;;;;4.00;4.00;;;;;17.82;51.35;100368.53;5033829;28;8862;-64
2022/05/14 08:15:33;;;;;;;;;3.75;3.50;;;;;17.91;51.74;100371.13;5033707;28;9004;-64
2022/05/14 08:18:02;;;;;;;;;6.00;6.00;;;;;18.00;51.24;100362.09;5034843;28;9713;-63
2022/05/14 08:20:30;;;;;;;;;6.20;3.80;;;;;18.08;51.67;100366.69;5032871;28;8874;-63
2022/05/14 08:25:44;;;;;;;;;4.50;4.00;;;;;18.38;51.16;100369.75;5034675;28;9802;-64
2022/05/14 08:28:11;;;;;;;;;7.00;6.75;;;;;18.49;50.89;100372.19;5043095;28;8821;-63
2022/05/14 08:30:39;;;;;;;;;4.00;4.00;;;;;18.55;50.75;100371.53;5037170;28;8849;-64
2022/05/14 08:33:07;;;;;;;;;4.00;4.00;;;;;18.62;50.32;100371.72;5036988;28;8844;-64
2022/05/14 08:35:35;;;;;;;;;5.60;5.60;;;;;18.70;50.32;100377.16;5036878;28;8850;-63
2022/05/14 08:38:03;;;;;;;;;6.40;5.60;;;;;18.81;50.63;100375.00;5038253;28;8934;-64
2022/05/14 08:40:30;;;;;;;;;1.00;0.60;;;;;18.92;50.34;100371.16;5037365;28;8856;-63
2022/05/14 08:42:58;;;;;;;;;6.20;4.00;;;;;19.03;50.32;100365.47;5037430;28;8995;-63
2022/05/14 08:45:26;;;;;;;;;7.00;6.80;;;;;19.09;50.33;100365.63;5037715;28;8852;-64
2022/05/14 08:47:55;;;;;;;;;6.00;6.00;;;;;19.16;49.86;100373.91;5036775;28;8828;-64
2022/05/14 08:50:23;;;;;;;;;4.40;4.00;;;;;19.23;50.00;100370.44;5037330;28;8869;-63
2022/05/14 08:52:50;;;;;;;;;5.60;5.00;;;;;19.35;49.91;100363.66;5037529;28;8852;-64
2022/05/14 08:55:18;;;;;;;;;2.40;2.40;;;;;19.52;49.64;100357.28;5037486;28;8971;-63
2022/05/14 08:57:46;;;;;;;;;3.80;3.80;;;;;19.67;49.52;100363.72;5050639;28;8949;-63
2022/05/14 09:00:14;;;;;;;;;4.80;4.80;;;;;19.79;48.65;100365.03;5056348;28;8981;-64
2022/05/14 09:02:42;;;;;;;;;5.00;5.00;;;;;19.87;48.58;100358.78;5056369;28;8846;-62
2022/05/14 09:05:10;;;;;;;;;4.20;4.00;;;;;19.91;48.92;100360.13;5057234;28;8984;-64
2022/05/14 09:07:38;;;;;;;;;6.00;4.80;;;;;20.00;49.02;100357.25;5056692;28;8985;-63
2022/05/14 09:10:05;;;;;;;;;5.00;4.40;;;;;20.11;48.57;100358.78;5057188;28;8868;-62
2022/05/14 09:12:33;;;;;;;;;4.40;4.00;;;;;20.19;48.80;100356.88;5056266;28;8870;-63
2022/05/14 09:15:00;;;;;;;;;4.00;4.00;;;;;20.24;48.40;100361.78;5056599;28;8844;-63
2022/05/14 09:17:29;;;;;;;;;2.80;2.40;;;;;20.37;48.73;100357.50;5056561;28;8976;-62
2022/05/14 09:19:56;;;;;;;;;5.80;5.00;;;;;20.52;48.36;100363.88;5057232;28;8876;-63
2022/05/14 09:22:24;;;;;;;;;5.80;5.40;;;;;20.59;47.87;100364.88;5056154;28;8901;-63
2022/05/14 09:24:52;;;;;;;;;4.20;4.00;;;;;20.62;48.15;100361.81;5057007;28;8846;-63
2022/05/14 09:27:19;;;;;;;;;4.80;4.40;;;;;20.69;47.89;100353.84;5045290;28;8829;-64
2022/05/14 09:29:47;;;;;;;;;4.20;4.20;;;;;20.81;48.15;100351.38;5036106;28;8858;-64
2022/05/14 09:32:15;;;;;;;;;4.60;4.00;;;;;20.99;47.18;100356.56;5035776;28;8894;-66
2022/05/14 09:34:43;;;;;;;;;4.20;4.20;;;;;21.11;47.13;100352.44;5035481;28;9299;-63
2022/05/14 09:37:28;;;;;;;;;5.40;4.60;;;;;21.29;47.33;100359.28;5035174;28;8987;-64
2022/05/14 09:39:56;;;;;;;;;4.80;4.80;;;;;21.56;46.47;100358.72;5035581;28;8978;-63
2022/05/14 09:42:24;;;;;;;;;4.00;4.00;;;;;21.92;45.97;100356.22;5035216;28;8848;-64
2022/05/14 09:44:52;;;;;;;;;4.80;4.80;;;;;22.25;45.38;100357.59;5035525;28;8975;-64
2022/05/14 09:47:20;;;;;;;;;2.80;2.40;;;;;22.64;44.94;100342.72;5036535;28;9502;-64
2022/05/14 09:49:47;;;;;;;;;4.00;4.00;;;;;23.14;43.74;100352.72;5035264;28;8841;-63
2022/05/14 09:52:15;;;;;;;;;4.80;4.80;;;;;23.59;43.28;100355.13;5036474;28;9668;-63
2022/05/14 09:54:43;;;;;;;;;2.00;2.00;;;;;23.93;43.32;100355.22;5035800;28;8849;-63
2022/05/14 09:57:11;;;;;;;;;5.20;5.20;;;;;24.05;43.08;100345.47;5043730;28;8841;-64
2022/05/14 09:59:38;;;;;;;;;5.40;4.00;;;;;24.29;42.49;100334.13;5055680;28;9000;-63
2022/05/14 10:02:06;;;;;;;;;4.60;4.40;;;;;24.61;42.69;100338.94;5056386;28;8989;-63
2022/05/14 10:04:34;;;;;;;;;4.60;2.80;;;;;25.01;41.73;100340.78;5054897;28;8884;-64
2022/05/14 10:07:03;;;;;;;;;2.20;1.40;;;;;25.43;41.43;100348.69;5055974;28;8861;-63
2022/05/14 10:09:31;;;;;;;;;6.20;5.60;;;;;25.90;40.54;100338.47;5055598;28;8846;-65
2022/05/14 10:11:58;;;;;;;;;8.00;6.00;;;;;26.34;40.46;100342.19;5051566;28;8854;-64
2022/05/14 10:14:33;;;;;;;;;6.00;6.00;;;;;26.44;40.20;100339.00;5055705;28;8826;-64
2022/05/14 10:17:00;;;;;;;;;6.00;6.00;;;;;26.60;40.37;100344.88;5055911;28;8848;-64
2022/05/14 10:19:29;;;;;;;;;6.00;6.00;;;;;26.70;39.68;100348.00;5055013;28;8846;-63
2022/05/14 10:21:57;;;;;;;;;5.00;5.00;;;;;26.57;40.44;100347.22;5054360;28;8858;-63
2022/05/14 10:27:10;;;;;;;;;5.60;5.40;;;;;26.95;40.06;100343.47;5046051;28;8847;-63
2022/05/14 10:29:38;;;;;;;;;3.00;3.00;;;;;27.53;39.00;100344.25;5035032;28;8974;-64
2022/05/14 10:32:10;;;;;;;;;6.00;4.80;;;;;28.22;38.23;100337.56;5035578;28;8872;-64
2022/05/14 10:34:38;;;;;;;;;4.00;4.00;;;;;28.51;37.63;100331.38;5034276;28;8848;-64
2022/05/14 10:37:05;;;;;;;;;4.00;4.00;;;;;28.18;38.45;100340.97;5033262;28;8871;-64
2022/05/14 10:39:33;;;;;;;;;6.20;5.80;;;;;28.30;38.02;100342.72;5028246;28;8856;-67
2022/05/14 10:42:01;;;;;;;;;6.40;6.40;;;;;28.56;37.56;100345.25;5033707;28;9621;-65
2022/05/14 10:44:28;;;;;;;;;6.00;4.00;;;;;28.88;37.01;100338.53;5035283;28;8932;-64
2022/05/14 10:46:56;;;;;;;;;4.00;3.20;;;;;28.64;37.39;100339.47;5035000;28;8978;-64
2022/05/14 10:49:25;;;;;;;;;7.20;6.40;;;;;27.88;38.59;100350.94;5034013;28;8868;-65
2022/05/14 10:51:52;;;;;;;;;4.80;4.00;;;;;26.85;40.04;100353.22;5035416;28;8873;-64
2022/05/14 10:54:25;;;;;;;;;6.80;6.80;;;;;27.26;39.75;100351.78;5036130;28;8856;-64
2022/05/14 10:56:53;;;;;;;;;5.00;4.20;;;;;27.93;38.43;100354.69;5039264;28;8843;-64
2022/05/14 10:59:21;;;;;;;;;7.40;6.40;;;;;28.54;37.70;100352.88;5034879;28;8860;-63
2022/05/14 11:01:49;;;;;;;;;4.20;4.20;;;;;29.01;37.03;100349.38;5035588;28;8845;-63
2022/05/14 11:04:16;;;;;;;;;4.00;4.00;;;;;29.56;35.92;100348.19;5035438;28;8978;-64
2022/05/14 11:06:44;;;;;;;;;6.40;5.00;;;;;30.10;35.70;100338.88;5034054;28;8942;-64
2022/05/14 11:09:14;;;;;;;;;3.40;3.40;;;;;30.52;34.54;100341.25;5033295;28;8894;-65
2022/05/14 11:11:42;;;;;;;;;6.20;4.40;;;;;30.83;34.59;100336.16;5049226;28;8834;-64
2022/05/14 11:14:10;;;;;;;;;5.00;5.00;;;;;31.30;34.56;100342.38;5052857;28;8846;-64
2022/05/14 11:16:38;;;;;;;;;4.00;4.00;;;;;31.76;33.84;100343.00;5052682;28;8853;-64
2022/05/14 11:19:07;;;;;;;;;4.00;3.60;;;;;31.24;34.22;100340.59;5052942;28;9757;-64
2022/05/14 11:21:34;;;;;;;;;5.00;5.00;;;;;30.50;35.90;100346.16;5053469;28;8862;-64
2022/05/14 11:24:02;;;;;;;;;6.00;5.00;;;;;30.45;35.62;100348.78;5055381;28;8846;-63
2022/05/14 11:26:30;;;;;;;;;3.00;3.00;;;;;30.68;34.95;100332.28;5048975;28;8825;-64
2022/05/14 11:28:58;;;;;;;;;4.60;4.00;;;;;30.96;34.04;100333.13;5033896;28;8844;-64
2022/05/14 11:31:25;;;;;;;;;6.60;5.00;;;;;30.30;35.34;100342.09;5033721;28;8878;-64
2022/05/14 11:33:53;;;;;;;;;4.60;4.60;;;;;30.19;35.69;100345.69;5035191;28;8959;-63
2022/05/14 11:36:21;;;;;;;;;3.80;3.60;;;;;30.54;34.95;100333.56;5054592;28;8842;-64
2022/05/14 11:38:49;;;;;;;;;5.00;4.00;;;;;30.91;34.48;100343.22;5054760;28;8850;-64
2022/05/14 11:41:17;;;;;;;;;4.60;4.20;;;;;31.41;34.22;100345.09;5054489;28;8864;-64
2022/05/14 11:43:46;;;;;;;;;5.00;4.40;;;;;31.56;33.87;100337.09;5054279;28;8850;-64
2022/05/14 11:46:13;;;;;;;;;4.00;4.00;;;;;30.54;35.04;100341.81;5053836;28;8834;-64
2022/05/14 11:48:41;;;;;;;;;6.00;4.80;;;;;29.50;36.63;100343.59;5054423;28;8929;-64
2022/05/14 11:51:09;;;;;;;;;6.00;5.80;;;;;29.34;36.81;100344.25;5053847;28;8862;-66
2022/05/14 11:53:36;;;;;;;;;5.40;4.20;;;;;29.77;35.94;100344.88;5053911;28;9799;-64
2022/05/14 11:56:04;;;;;;;;;5.80;5.20;;;;;30.45;34.85;100345.19;5053486;28;8854;-63
2022/05/14 11:58:32;;;;;;;;;3.60;3.60;;;;;31.00;34.08;100339.84;5051958;28;8819;-64
2022/05/14 12:01:00;;;;;;;;;4.00;4.00;;;;;31.58;32.88;100339.63;5054534;28;8862;-64